createdAt,value
2023-02-18T00:00:28.078Z,100.00
2023-02-18T00:02:54.619Z,100.00
2023-02-18T00:05:22.286Z,100.00
2023-02-18T00:07:49.057Z,100.00
2023-02-18T00:10:16.281Z,100.00
2023-02-18T00:12:43.380Z,100.00
2023-02-18T00:15:10.290Z,100.00
2023-02-18T00:17:37.244Z,100.00
2023-02-18T00:20:06.186Z,100.00
2023-02-18T00:22:33.293Z,100.00
2023-02-18T00:24:59.821Z,100.00
2023-02-18T00:27:26.370Z,100.00
2023-02-18T00:29:53.105Z,100.00
2023-02-18T00:32:19.592Z,100.00
2023-02-18T00:34:46.058Z,100.00
2023-02-18T00:37:13.765Z,100.00
2023-02-18T00:39:40.395Z,100.00
2023-02-18T00:42:07.250Z,100.00
2023-02-18T00:44:33.773Z,100.00
2023-02-18T00:47:00.312Z,100.00
2023-02-18T00:49:26.858Z,100.00
2023-02-18T00:51:53.325Z,100.00
2023-02-18T00:54:19.897Z,100.00
2023-02-18T00:56:46.828Z,100.00
2023-02-18T00:59:13.274Z,100.00
2023-02-18T01:01:40.016Z,100.00
2023-02-18T01:04:06.609Z,100.00
2023-02-18T01:06:33.259Z,100.00
2023-02-18T01:08:59.810Z,100.00
2023-02-18T01:11:26.596Z,100.00
2023-02-18T01:13:53.415Z,100.00
2023-02-18T01:16:20.506Z,100.00
2023-02-18T01:18:47.533Z,100.00
2023-02-18T01:21:14.169Z,100.00
2023-02-18T01:23:41.709Z,100.00
2023-02-18T01:26:09.657Z,100.00
2023-02-18T01:28:36.938Z,100.00
2023-02-18T01:31:11.534Z,99.99
2023-02-18T01:33:38.999Z,100.00
2023-02-18T01:36:07.397Z,99.12
2023-02-18T01:38:34.470Z,99.01
2023-02-18T01:41:01.014Z,99.43
2023-02-18T01:43:27.763Z,98.75
2023-02-18T01:45:57.608Z,97.36
2023-02-18T01:48:34.342Z,97.00
2023-02-18T01:51:27.543Z,93.59
2023-02-18T01:54:06.308Z,95.32
2023-02-18T01:56:39.681Z,95.47
2023-02-18T01:59:11.584Z,93.56
2023-02-18T02:01:41.933Z,93.00
2023-02-18T02:04:08.493Z,92.78
2023-02-18T02:06:35.192Z,94.35
2023-02-18T02:09:06.922Z,94.13
2023-02-18T02:11:45.841Z,92.76
2023-02-18T02:14:50.779Z,90.94
2023-02-18T02:17:28.400Z,89.63
2023-02-18T02:20:36.153Z,88.95
2023-02-18T02:23:08.642Z,91.31
2023-02-18T02:25:50.596Z,95.58
2023-02-18T02:29:22.352Z,99.71
2023-02-18T02:32:05.805Z,100.00
2023-02-18T02:34:51.456Z,100.00
2023-02-18T02:37:20.796Z,100.00
2023-02-18T02:40:09.552Z,100.00
2023-02-18T02:43:20.665Z,100.00
2023-02-18T02:46:07.295Z,100.00
2023-02-18T02:48:49.240Z,100.00
2023-02-18T02:51:28.384Z,100.00
2023-02-18T02:53:55.030Z,100.00
2023-02-18T02:56:24.647Z,100.00
2023-02-18T02:59:04.442Z,100.00
2023-02-18T03:01:47.943Z,100.00
2023-02-18T03:04:42.129Z,100.00
2023-02-18T03:07:21.334Z,100.00
2023-02-18T03:10:26.954Z,100.00
2023-02-18T03:13:15.206Z,100.00
2023-02-18T03:15:59.945Z,100.00
2023-02-18T03:18:41.327Z,100.00
2023-02-18T03:21:13.912Z,98.05
2023-02-18T03:24:32.901Z,97.39
2023-02-18T03:27:05.563Z,94.60
2023-02-18T03:29:33.641Z,90.87
2023-02-18T03:32:05.643Z,89.89
2023-02-18T03:34:39.538Z,86.74
2023-02-18T03:37:07.446Z,84.44
2023-02-18T03:39:36.003Z,85.39
2023-02-18T03:42:02.550Z,85.56
2023-02-18T03:44:31.256Z,82.95
2023-02-18T03:46:58.084Z,81.15
2023-02-18T03:49:24.639Z,83.55
2023-02-18T03:51:51.148Z,84.68
2023-02-18T03:54:17.601Z,84.67
2023-02-18T03:56:44.361Z,81.81
2023-02-18T03:59:12.115Z,82.12
2023-02-18T04:01:39.052Z,81.10
2023-02-18T04:04:06.169Z,80.96
2023-02-18T04:06:32.776Z,80.13
2023-02-18T04:08:59.229Z,80.00
2023-02-18T04:11:25.950Z,76.16
2023-02-18T04:13:52.435Z,75.65
2023-02-18T04:16:22.644Z,73.47
2023-02-18T04:18:49.171Z,73.13
2023-02-18T04:21:15.866Z,74.15
2023-02-18T04:23:42.348Z,73.41
2023-02-18T04:26:09.169Z,73.98
2023-02-18T04:28:36.044Z,75.04
2023-02-18T04:31:02.664Z,73.59
2023-02-18T04:33:29.754Z,73.97
2023-02-18T04:35:56.384Z,74.82
2023-02-18T04:38:23.426Z,73.53
2023-02-18T04:40:49.986Z,74.63
2023-02-18T04:43:16.833Z,74.02
2023-02-18T04:45:43.378Z,74.67
2023-02-18T04:48:10.121Z,74.74
2023-02-18T04:50:36.878Z,73.55
2023-02-18T04:53:03.448Z,73.73
2023-02-18T04:55:29.958Z,74.75
2023-02-18T04:57:56.801Z,73.85
2023-02-18T05:00:23.438Z,73.82
2023-02-18T05:02:50.118Z,72.70
2023-02-18T05:05:16.680Z,72.72
2023-02-18T05:07:43.496Z,72.14
2023-02-18T05:10:14.530Z,72.63
2023-02-18T05:12:41.322Z,71.55
2023-02-18T05:15:08.864Z,70.36
2023-02-18T05:17:35.583Z,70.64
2023-02-18T05:20:02.133Z,71.38
2023-02-18T05:22:28.562Z,72.08
2023-02-18T05:24:55.213Z,71.93
2023-02-18T05:27:21.815Z,70.35
2023-02-18T05:29:49.075Z,69.80
2023-02-18T05:32:15.538Z,69.57
2023-02-18T05:34:42.294Z,70.48
2023-02-18T05:37:09.367Z,70.58
2023-02-18T05:39:36.412Z,69.29
2023-02-18T05:42:03.460Z,65.48
2023-02-18T05:44:30.213Z,64.26
2023-02-18T05:47:02.293Z,62.88
2023-02-18T05:49:30.301Z,60.91
2023-02-18T05:51:57.492Z,61.29
2023-02-18T05:54:24.171Z,62.42
2023-02-18T05:56:51.816Z,62.67
2023-02-18T05:59:18.980Z,63.74
2023-02-18T06:01:46.769Z,63.53
2023-02-18T06:04:13.901Z,63.96
2023-02-18T06:06:40.930Z,64.39
2023-02-18T06:09:08.519Z,64.07
2023-02-18T06:11:35.825Z,63.03
2023-02-18T06:14:03.161Z,62.70
2023-02-18T06:16:30.211Z,61.25
2023-02-18T06:18:56.864Z,58.59
2023-02-18T06:21:23.491Z,56.02
2023-02-18T06:23:50.431Z,52.93
2023-02-18T06:26:16.931Z,53.67
2023-02-18T06:28:43.510Z,53.99
2023-02-18T06:31:10.124Z,54.17
2023-02-18T06:33:36.794Z,54.23
2023-02-18T06:36:09.084Z,53.85
2023-02-18T06:38:36.121Z,54.91
2023-02-18T06:41:03.561Z,52.36
2023-02-18T06:43:30.536Z,52.89
2023-02-18T06:45:57.282Z,52.78
2023-02-18T06:48:24.072Z,52.45
2023-02-18T06:50:51.067Z,51.89
2023-02-18T06:53:17.589Z,53.96
2023-02-18T06:55:44.886Z,54.68
2023-02-18T06:58:12.793Z,54.24
2023-02-18T07:00:39.618Z,53.75
2023-02-18T07:03:07.371Z,52.94
2023-02-18T07:05:34.731Z,51.68
2023-02-18T07:08:01.701Z,50.89
2023-02-18T07:10:28.510Z,47.60
2023-02-18T07:12:55.068Z,46.93
2023-02-18T07:15:21.611Z,45.04
2023-02-18T07:17:48.459Z,45.53
2023-02-18T07:20:14.910Z,43.98
2023-02-18T07:22:41.641Z,43.40
2023-02-18T07:25:08.525Z,44.66
2023-02-18T07:27:35.134Z,43.16
2023-02-18T07:30:01.726Z,43.70
2023-02-18T07:32:28.190Z,43.86
2023-02-18T07:34:54.774Z,44.25
2023-02-18T07:37:21.411Z,44.32
2023-02-18T07:39:47.850Z,43.63
2023-02-18T07:42:14.902Z,44.29
2023-02-18T07:44:42.326Z,44.63
2023-02-18T07:47:12.783Z,44.72
2023-02-18T07:49:39.660Z,44.20
2023-02-18T07:52:06.103Z,44.62
2023-02-18T07:54:32.964Z,43.92
2023-02-18T07:56:59.579Z,43.88
2023-02-18T07:59:26.115Z,43.67
2023-02-18T08:01:52.679Z,43.37
2023-02-18T08:04:19.201Z,43.66
2023-02-18T08:06:49.047Z,43.78
2023-02-18T08:09:16.939Z,43.85
2023-02-18T08:11:43.839Z,43.59
2023-02-18T08:14:10.397Z,43.58
2023-02-18T08:16:37.303Z,44.00
2023-02-18T08:19:04.483Z,44.32
2023-02-18T08:21:31.552Z,44.58
2023-02-18T08:23:59.545Z,43.43
2023-02-18T08:26:26.272Z,42.30
2023-02-18T08:28:52.838Z,42.75
2023-02-18T08:31:29.067Z,41.82
2023-02-18T08:33:56.843Z,42.38
2023-02-18T08:36:23.720Z,41.92
2023-02-18T08:38:50.654Z,41.86
2023-02-18T08:41:17.585Z,40.80
2023-02-18T08:43:45.071Z,41.52
2023-02-18T08:46:15.970Z,41.82
2023-02-18T08:48:44.553Z,40.32
2023-02-18T08:51:13.719Z,40.94
2023-02-18T08:53:40.614Z,40.36
2023-02-18T08:56:09.595Z,40.04
2023-02-18T08:58:37.536Z,40.41
2023-02-18T09:01:10.304Z,41.63
2023-02-18T09:03:37.369Z,40.87
2023-02-18T09:06:04.762Z,40.52
2023-02-18T09:08:31.378Z,40.84
2023-02-18T09:10:59.820Z,40.30
2023-02-18T09:13:26.928Z,40.52
2023-02-18T09:16:02.047Z,40.25
2023-02-18T09:18:29.006Z,40.54
2023-02-18T09:20:57.530Z,39.30
2023-02-18T09:23:30.189Z,39.41
2023-02-18T09:25:57.074Z,38.91
2023-02-18T09:28:24.105Z,39.06
2023-02-18T09:30:51.246Z,38.68
2023-02-18T09:33:18.894Z,37.13
2023-02-18T09:35:46.761Z,37.65
2023-02-18T09:38:16.262Z,37.04
2023-02-18T09:40:48.613Z,36.72
2023-02-18T09:43:33.949Z,36.45
2023-02-18T09:46:02.168Z,35.45
2023-02-18T09:48:32.900Z,36.24
2023-02-18T09:51:00.160Z,36.48
2023-02-18T09:53:27.119Z,36.40
2023-02-18T09:55:56.622Z,36.78
2023-02-18T09:58:30.628Z,37.11
2023-02-18T10:01:15.467Z,37.91
2023-02-18T10:03:42.380Z,38.55
2023-02-18T10:06:26.257Z,39.02
2023-02-18T10:08:55.148Z,38.16
2023-02-18T10:11:42.958Z,38.16
2023-02-18T10:14:12.483Z,38.37
2023-02-18T10:16:40.335Z,38.43
2023-02-18T10:19:38.148Z,38.26
2023-02-18T10:22:08.171Z,38.10
2023-02-18T10:24:43.217Z,38.64
2023-02-18T10:27:15.061Z,38.48
2023-02-18T10:29:41.734Z,37.63
2023-02-18T10:32:24.007Z,37.48
2023-02-18T10:35:15.824Z,38.35
2023-02-18T10:37:42.272Z,38.59
2023-02-18T10:40:33.736Z,38.48
2023-02-18T10:43:06.318Z,38.88
2023-02-18T10:45:57.672Z,38.81
2023-02-18T10:48:42.625Z,39.12
2023-02-18T10:51:16.897Z,39.16
2023-02-18T10:53:46.716Z,39.53
2023-02-18T10:56:34.535Z,38.76
2023-02-18T10:59:22.650Z,38.13
2023-02-18T11:02:17.530Z,37.70
2023-02-18T11:04:46.330Z,37.24
2023-02-18T11:07:16.678Z,37.77
2023-02-18T11:09:49.952Z,38.35
2023-02-18T11:12:29.142Z,38.90
2023-02-18T11:15:19.687Z,38.63
2023-02-18T11:17:49.113Z,38.67
2023-02-18T11:20:24.430Z,38.59
2023-02-18T11:22:51.394Z,39.10
2023-02-18T11:25:24.952Z,38.78
2023-02-18T11:27:56.496Z,38.77
2023-02-18T11:30:32.458Z,38.93
2023-02-18T11:33:03.406Z,38.85
2023-02-18T11:35:32.162Z,39.30
2023-02-18T11:38:01.046Z,39.67
2023-02-18T11:40:34.405Z,39.83
2023-02-18T11:43:17.756Z,40.42
2023-02-18T11:45:44.770Z,40.75
2023-02-18T11:48:17.835Z,41.13
2023-02-18T11:50:49.885Z,41.42
2023-02-18T11:53:26.734Z,41.78
2023-02-18T11:55:56.360Z,42.06
2023-02-18T11:58:23.079Z,42.38
2023-02-18T12:00:51.111Z,43.47
2023-02-18T12:03:52.097Z,44.87
2023-02-18T12:06:24.907Z,46.44
2023-02-18T12:08:58.186Z,46.35
2023-02-18T12:11:33.147Z,46.70
2023-02-18T12:14:00.254Z,47.12
2023-02-18T12:16:46.022Z,48.03
2023-02-18T12:19:44.095Z,48.80
2023-02-18T12:22:26.905Z,49.12
2023-02-18T12:25:03.729Z,49.52
2023-02-18T12:27:42.460Z,49.20
2023-02-18T12:30:46.413Z,49.04
2023-02-18T12:33:29.422Z,49.39
2023-02-18T12:36:17.347Z,49.38
2023-02-18T12:38:54.521Z,49.70
2023-02-18T12:41:47.121Z,50.10
2023-02-18T12:44:45.384Z,50.53
2023-02-18T12:47:42.460Z,50.64
2023-02-18T12:50:33.324Z,50.86
2023-02-18T12:53:38.973Z,51.04
2023-02-18T12:56:26.831Z,50.95
2023-02-18T12:59:18.110Z,51.32
2023-02-18T13:01:59.902Z,51.54
2023-02-18T13:04:42.024Z,51.87
2023-02-18T13:07:33.735Z,51.66
2023-02-18T13:10:34.589Z,51.76
2023-02-18T13:13:12.025Z,51.98
2023-02-18T13:15:50.216Z,52.26
2023-02-18T13:18:37.398Z,52.28
2023-02-18T13:21:07.606Z,52.17
2023-02-18T13:24:06.366Z,52.32
2023-02-18T13:26:34.631Z,52.27
2023-02-18T13:29:27.679Z,52.59
2023-02-18T13:32:12.782Z,52.56
2023-02-18T13:34:56.908Z,52.48
2023-02-18T13:37:51.112Z,52.95
2023-02-18T13:40:21.728Z,53.45
2023-02-18T13:42:52.948Z,53.48
2023-02-18T13:45:23.821Z,53.87
2023-02-18T13:47:51.508Z,54.26
2023-02-18T13:50:24.482Z,54.69
2023-02-18T13:53:11.205Z,55.50
2023-02-18T13:55:57.965Z,55.86
2023-02-18T13:58:31.531Z,55.91
2023-02-18T14:01:06.106Z,56.00
2023-02-18T14:03:32.670Z,56.42
2023-02-18T14:05:59.844Z,57.51
2023-02-18T14:08:33.755Z,57.16
2023-02-18T14:11:12.216Z,57.31
2023-02-18T14:13:43.222Z,58.00
2023-02-18T14:16:11.360Z,57.84
2023-02-18T14:18:40.937Z,57.84
2023-02-18T14:21:13.194Z,58.14
2023-02-18T14:23:39.715Z,58.41
2023-02-18T14:26:21.852Z,58.52
2023-02-18T14:28:48.470Z,59.08
2023-02-18T14:31:15.234Z,59.39
2023-02-18T14:33:59.689Z,59.21
2023-02-18T14:36:48.197Z,59.65
2023-02-18T14:39:30.213Z,59.70
2023-02-18T14:42:18.496Z,60.50
2023-02-18T14:45:17.237Z,60.54
2023-02-18T14:47:49.888Z,61.99
2023-02-18T14:50:19.825Z,61.61
2023-02-18T14:53:05.392Z,61.63
2023-02-18T14:55:39.256Z,61.62
2023-02-18T14:58:32.263Z,61.81
2023-02-18T15:01:06.372Z,63.47
2023-02-18T15:03:33.640Z,62.80
2023-02-18T15:06:00.286Z,64.01
2023-02-18T15:08:27.033Z,65.88
2023-02-18T15:10:58.841Z,65.18
2023-02-18T15:13:27.897Z,65.64
2023-02-18T15:16:02.645Z,67.03
2023-02-18T15:18:36.849Z,66.97
2023-02-18T15:21:09.606Z,68.67
2023-02-18T15:23:40.261Z,68.17
2023-02-18T15:26:08.016Z,69.79
2023-02-18T15:28:43.389Z,69.19
2023-02-18T15:31:14.956Z,70.29
2023-02-18T15:33:48.163Z,71.33
2023-02-18T15:36:15.073Z,71.92
2023-02-18T15:38:41.724Z,71.22
2023-02-18T15:41:14.106Z,74.07
2023-02-18T15:44:11.732Z,73.14
2023-02-18T15:46:39.870Z,73.37
2023-02-18T15:49:08.234Z,74.47
2023-02-18T15:51:35.099Z,73.89
2023-02-18T15:54:03.474Z,73.46
2023-02-18T15:56:37.738Z,74.54
2023-02-18T15:59:33.316Z,73.61
2023-02-18T16:02:08.751Z,76.22
2023-02-18T16:04:41.013Z,76.36
2023-02-18T16:07:30.147Z,77.27
2023-02-18T16:10:15.628Z,77.12
2023-02-18T16:12:51.178Z,77.39
2023-02-18T16:15:27.605Z,78.00
2023-02-18T16:17:54.515Z,79.43
2023-02-18T16:20:36.579Z,79.92
2023-02-18T16:23:11.395Z,79.28
2023-02-18T16:25:47.109Z,80.11
2023-02-18T16:28:27.298Z,79.11
2023-02-18T16:30:54.214Z,78.79
2023-02-18T16:33:20.707Z,79.52
2023-02-18T16:35:50.294Z,79.13
2023-02-18T16:38:20.733Z,80.23
2023-02-18T16:40:48.091Z,81.65
2023-02-18T16:43:17.678Z,82.39
2023-02-18T16:45:50.508Z,83.12
2023-02-18T16:48:24.343Z,84.76
2023-02-18T16:50:51.412Z,85.27
2023-02-18T16:53:18.322Z,86.84
2023-02-18T16:55:44.723Z,86.28
2023-02-18T16:58:11.612Z,87.46
2023-02-18T17:00:39.647Z,87.27
2023-02-18T17:03:06.433Z,89.68
2023-02-18T17:05:34.835Z,89.95
2023-02-18T17:08:18.253Z,91.11
2023-02-18T17:10:47.775Z,92.65
2023-02-18T17:13:17.213Z,92.66
2023-02-18T17:15:47.544Z,96.26
2023-02-18T17:18:14.756Z,96.44
2023-02-18T17:20:41.398Z,95.30
2023-02-18T17:23:08.176Z,95.92
2023-02-18T17:25:38.420Z,97.05
2023-02-18T17:28:05.740Z,96.40
2023-02-18T17:30:36.416Z,96.04
2023-02-18T17:33:06.242Z,96.04
2023-02-18T17:35:33.366Z,97.85
2023-02-18T17:37:59.981Z,96.62
2023-02-18T17:40:28.410Z,96.40
2023-02-18T17:42:55.804Z,98.31
2023-02-18T17:45:33.357Z,97.43
2023-02-18T17:48:01.605Z,97.14
2023-02-18T17:50:30.271Z,97.50
2023-02-18T17:52:57.034Z,98.23
2023-02-18T17:55:23.987Z,98.64
2023-02-18T17:57:51.953Z,98.46
2023-02-18T18:00:22.155Z,97.26
2023-02-18T18:02:48.714Z,97.12
2023-02-18T18:05:30.234Z,98.72
2023-02-18T18:07:56.759Z,98.38
2023-02-18T18:10:25.161Z,99.11
2023-02-18T18:12:51.785Z,98.73
2023-02-18T18:15:31.935Z,99.75
2023-02-18T18:17:58.986Z,100.00
2023-02-18T18:20:27.040Z,100.00
2023-02-18T18:22:56.157Z,100.00
2023-02-18T18:25:45.235Z,100.00
2023-02-18T18:28:12.289Z,100.00
2023-02-18T18:30:42.073Z,100.00
2023-02-18T18:33:24.067Z,100.00
2023-02-18T18:35:52.846Z,100.00
2023-02-18T18:38:20.869Z,100.00
2023-02-18T18:40:48.451Z,100.00
2023-02-18T18:43:19.902Z,100.00
2023-02-18T18:45:47.509Z,100.00
2023-02-18T18:48:15.129Z,100.00
2023-02-18T18:50:43.061Z,100.00
2023-02-18T18:53:22.649Z,100.00
2023-02-18T18:55:51.735Z,100.00
2023-02-18T18:58:18.533Z,100.00
2023-02-18T19:00:44.999Z,100.00
2023-02-18T19:03:12.921Z,100.00
2023-02-18T19:05:43.816Z,100.00
2023-02-18T19:08:15.106Z,100.00
2023-02-18T19:10:42.786Z,100.00
2023-02-18T19:13:17.285Z,100.00
2023-02-18T19:15:44.484Z,100.00
2023-02-18T19:18:19.715Z,100.00
2023-02-18T19:20:47.018Z,100.00
2023-02-18T19:23:14.519Z,100.00
2023-02-18T19:25:41.560Z,100.00
2023-02-18T19:28:08.757Z,100.00
2023-02-18T19:30:37.228Z,100.00
2023-02-18T19:33:05.702Z,100.00
2023-02-18T19:35:32.976Z,100.00
2023-02-18T19:38:00.412Z,100.00
2023-02-18T19:40:30.444Z,100.00
2023-02-18T19:42:57.376Z,100.00
2023-02-18T19:45:24.754Z,100.00
2023-02-18T19:47:56.296Z,100.00
2023-02-18T19:50:24.153Z,100.00
2023-02-18T19:52:55.509Z,100.00
2023-02-18T19:55:22.755Z,100.00
2023-02-18T19:57:50.750Z,100.00
2023-02-18T20:00:20.466Z,100.00
2023-02-18T20:02:47.144Z,100.00
2023-02-18T20:05:14.637Z,100.00
2023-02-18T20:07:41.901Z,100.00
2023-02-18T20:10:12.496Z,100.00
2023-02-18T20:12:39.098Z,100.00
2023-02-18T20:15:06.335Z,100.00
2023-02-18T20:17:33.316Z,100.00
2023-02-18T20:19:59.960Z,100.00
2023-02-18T20:22:26.591Z,100.00
2023-02-18T20:24:53.135Z,100.00
2023-02-18T20:27:19.931Z,100.00
2023-02-18T20:29:46.464Z,100.00
2023-02-18T20:32:13.092Z,100.00
2023-02-18T20:34:39.661Z,100.00
2023-02-18T20:37:06.121Z,100.00
2023-02-18T20:39:32.773Z,100.00
2023-02-18T20:42:02.888Z,100.00
2023-02-18T20:44:32.209Z,100.00
2023-02-18T20:46:58.728Z,100.00
2023-02-18T20:49:25.183Z,100.00
2023-02-18T20:51:51.722Z,100.00
2023-02-18T20:54:19.541Z,100.00
2023-02-18T20:56:48.974Z,100.00
2023-02-18T20:59:18.180Z,100.00
2023-02-18T21:01:45.988Z,100.00
2023-02-18T21:04:15.442Z,100.00
2023-02-18T21:06:42.219Z,100.00
2023-02-18T21:09:08.759Z,100.00
2023-02-18T21:11:35.398Z,100.00
2023-02-18T21:14:01.940Z,100.00
2023-02-18T21:16:29.691Z,100.00
2023-02-18T21:18:56.184Z,100.00
2023-02-18T21:21:22.823Z,100.00
2023-02-18T21:23:50.143Z,100.00
2023-02-18T21:26:20.588Z,100.00
2023-02-18T21:28:49.894Z,100.00
2023-02-18T21:31:20.032Z,100.00
2023-02-18T21:33:47.230Z,100.00
2023-02-18T21:36:14.728Z,100.00
2023-02-18T21:38:42.072Z,100.00
2023-02-18T21:41:08.993Z,100.00
2023-02-18T21:43:35.774Z,100.00
2023-02-18T21:46:24.110Z,100.00
2023-02-18T21:48:51.299Z,100.00
2023-02-18T21:51:18.015Z,100.00
2023-02-18T21:53:44.758Z,100.00
2023-02-18T21:56:12.113Z,100.00
2023-02-18T21:58:38.611Z,100.00
2023-02-18T22:01:05.624Z,100.00
2023-02-18T22:03:32.782Z,100.00
2023-02-18T22:05:59.394Z,100.00
2023-02-18T22:08:25.911Z,100.00
2023-02-18T22:10:52.393Z,100.00
2023-02-18T22:13:18.914Z,100.00
2023-02-18T22:15:45.460Z,100.00
2023-02-18T22:18:11.971Z,100.00
2023-02-18T22:20:38.788Z,100.00
2023-02-18T22:23:05.337Z,100.00
2023-02-18T22:25:31.777Z,100.00
2023-02-18T22:27:58.192Z,100.00
2023-02-18T22:30:24.916Z,100.00
2023-02-18T22:32:51.429Z,100.00
2023-02-18T22:35:17.976Z,100.00
2023-02-18T22:37:44.448Z,100.00
2023-02-18T22:40:11.049Z,100.00
2023-02-18T22:42:37.682Z,100.00
2023-02-18T22:45:04.745Z,100.00
2023-02-18T22:47:31.382Z,100.00
2023-02-18T22:49:58.036Z,100.00
2023-02-18T22:52:24.663Z,100.00
2023-02-18T22:54:51.418Z,100.00
2023-02-18T22:57:18.837Z,100.00
2023-02-18T22:59:45.308Z,100.00
2023-02-18T23:02:12.281Z,100.00
2023-02-18T23:04:39.833Z,100.00
2023-02-18T23:07:06.481Z,100.00
2023-02-18T23:09:33.266Z,100.00
2023-02-18T23:11:59.762Z,100.00
2023-02-18T23:14:27.405Z,100.00
2023-02-18T23:16:56.724Z,100.00
2023-02-18T23:19:24.916Z,100.00
2023-02-18T23:21:51.588Z,100.00
2023-02-18T23:24:18.264Z,100.00
2023-02-18T23:26:44.728Z,100.00
2023-02-18T23:29:11.536Z,100.00
2023-02-18T23:31:38.527Z,100.00
2023-02-18T23:34:07.226Z,100.00
2023-02-18T23:36:35.738Z,100.00
2023-02-18T23:39:06.131Z,100.00
2023-02-18T23:41:32.564Z,100.00
2023-02-18T23:43:59.115Z,100.00
2023-02-18T23:46:26.993Z,100.00
2023-02-18T23:48:53.920Z,100.00
2023-02-18T23:51:23.085Z,100.00
2023-02-18T23:53:50.202Z,100.00
2023-02-18T23:56:22.579Z,100.00
2023-02-18T23:58:54.721Z,100.00
